< < Back
Terminal Aerodrome Forecast


Current Version              Previous Versions:   1  2  3  4  5  6  7  8  9  

Terminal Aerodrome Forecast

411
FTUS42 KGSP 310529
TAFAND
TAF
KAND 310529Z 3106/0106 00000KT P6SM SKC
     FM311400 23006KT P6SM SCT150
     FM010200 00000KT P6SM BKN120=



Latest METAR

161
SAUS70 KWBC 311700 RRB
MTRAND
METAR KAND 311656Z AUTO 25005KT 10SM CLR 07/M08 A3037 RMK AO2 SLP288
T00671083


USA.gov is the U.S. government's official web portal to all federal, state and local government web resources and services.